Terminal Aerodrome Forecast
Issued by NWS Pocatello, ID

Home | Current Version | Previous Version | Text Only | Print | Product List | Glossary On
Versions: 1 2 3 4 5 6 7 8 9 10 11 12 13 14 15 16 17 18 19 20 21 22 23 24
000
FTUS45 KPIH 100239 AAA
TAFIDA
TAF AMD
KIDA 100239Z 1003/1024 20008KT 2SM -SN BR OVC006
      TEMPO 1003/1007 1SM -SN BR
     FM100800 21006KT 4SM -SN BR SCT008 OVC015
     FM101400 20015KT 2SM -SN BR OVC008=

USA.gov is the U.S. government's official web portal to all federal, state and local government web resources and services.